createdAt,value
2023-02-23T00:01:26.871Z,100639.69
2023-02-23T00:03:58.959Z,100639.75
2023-02-23T00:06:28.275Z,100638.66
2023-02-23T00:08:54.991Z,100640.09
2023-02-23T00:11:22.312Z,100640.91
2023-02-23T00:13:50.324Z,100634.44
2023-02-23T00:16:19.348Z,100644.91
2023-02-23T00:18:51.210Z,100638.34
2023-02-23T00:21:19.497Z,100645.41
2023-02-23T00:23:51.041Z,100638.66
2023-02-23T00:26:20.756Z,100647.59
2023-02-23T00:28:49.034Z,100639.78
2023-02-23T00:31:15.485Z,100645.19
2023-02-23T00:33:42.525Z,100645.00
2023-02-23T00:36:14.176Z,100637.91
2023-02-23T00:38:41.720Z,100637.81
2023-02-23T00:41:13.538Z,100643.91
2023-02-23T00:43:47.753Z,100647.66
2023-02-23T00:46:19.100Z,100646.69
2023-02-23T00:48:46.041Z,100649.91
2023-02-23T00:51:13.548Z,100650.47
2023-02-23T00:53:40.875Z,100644.91
2023-02-23T00:56:09.603Z,100654.66
2023-02-23T00:58:36.750Z,100648.69
2023-02-23T01:01:07.223Z,100651.34
2023-02-23T01:03:34.224Z,100652.50
2023-02-23T01:06:05.364Z,100661.47
2023-02-23T01:08:37.651Z,100658.47
2023-02-23T01:11:09.824Z,100661.97
2023-02-23T01:13:37.213Z,100659.56
2023-02-23T01:16:11.747Z,100665.53
2023-02-23T01:18:40.009Z,100665.78
2023-02-23T01:21:15.249Z,100656.06
2023-02-23T01:23:41.756Z,100668.28
2023-02-23T01:26:19.061Z,100674.28
2023-02-23T01:28:50.584Z,100667.78
2023-02-23T01:31:18.767Z,100665.53
2023-02-23T01:33:45.996Z,100667.22
2023-02-23T01:36:15.549Z,100668.53
2023-02-23T01:38:42.020Z,100672.59
2023-02-23T01:41:09.036Z,100672.09
2023-02-23T01:43:55.194Z,100678.59
2023-02-23T01:46:21.980Z,100678.13
2023-02-23T01:48:48.716Z,100675.88
2023-02-23T01:51:20.256Z,100681.84
2023-02-23T01:54:09.765Z,100684.59
2023-02-23T01:56:45.097Z,100681.50
2023-02-23T01:59:15.186Z,100681.63
2023-02-23T02:01:42.764Z,100679.66
2023-02-23T02:04:16.596Z,100681.34
2023-02-23T02:06:45.800Z,100682.63
2023-02-23T02:09:19.499Z,100680.31
2023-02-23T02:11:54.069Z,100677.06
2023-02-23T02:14:27.293Z,100680.69
2023-02-23T02:17:14.897Z,100683.22
2023-02-23T02:20:06.434Z,100669.69
2023-02-23T02:22:58.066Z,100683.44
2023-02-23T02:25:31.600Z,100675.38
2023-02-23T02:28:39.091Z,100679.09
2023-02-23T02:31:15.567Z,100681.88
2023-02-23T02:34:25.474Z,100679.97
2023-02-23T02:37:09.879Z,100676.47
2023-02-23T02:40:16.922Z,100675.63
2023-02-23T02:42:55.308Z,100683.63
2023-02-23T02:45:41.309Z,100690.19
2023-02-23T02:48:19.611Z,100683.94
2023-02-23T02:50:51.952Z,100680.13
2023-02-23T02:53:26.650Z,100685.22
2023-02-23T02:55:56.621Z,100688.22
2023-02-23T02:58:25.533Z,100686.78
2023-02-23T03:01:11.237Z,100681.63
2023-02-23T03:04:00.267Z,100669.16
2023-02-23T03:07:03.981Z,100679.50
2023-02-23T03:10:02.840Z,100666.59
2023-02-23T03:13:13.520Z,100678.72
2023-02-23T03:16:21.652Z,100672.16
2023-02-23T03:19:25.131Z,100674.53
2023-02-23T03:22:19.433Z,100680.28
2023-02-23T03:25:13.656Z,100680.88
2023-02-23T03:28:08.017Z,100676.00
2023-02-23T03:31:05.201Z,100676.81
2023-02-23T03:34:07.370Z,100684.66
2023-02-23T03:36:58.032Z,100678.41
2023-02-23T03:39:51.507Z,100680.00
2023-02-23T03:42:40.594Z,100678.41
2023-02-23T03:45:31.589Z,100680.88
2023-02-23T03:48:21.650Z,100676.00
2023-02-23T03:51:12.807Z,100681.44
2023-02-23T03:54:08.733Z,100679.56
2023-02-23T03:56:57.519Z,100680.38
2023-02-23T03:59:48.012Z,100680.41
2023-02-23T04:02:37.044Z,100668.50
2023-02-23T04:05:27.807Z,100669.59
2023-02-23T04:08:14.282Z,100675.56
2023-02-23T04:11:08.503Z,100674.50
2023-02-23T04:13:37.995Z,100671.09
2023-02-23T04:16:07.818Z,100671.56
2023-02-23T04:18:37.062Z,100669.41
2023-02-23T04:21:05.535Z,100673.75
2023-02-23T04:23:32.691Z,100668.13
2023-02-23T04:25:59.361Z,100659.13
2023-02-23T04:28:27.298Z,100669.34
2023-02-23T04:30:54.068Z,100671.91
2023-02-23T04:33:25.400Z,100682.25
2023-02-23T04:35:55.238Z,100674.91
2023-02-23T04:38:23.156Z,100678.59
2023-02-23T04:40:50.410Z,100686.44
2023-02-23T04:43:17.027Z,100678.84
2023-02-23T04:45:44.357Z,100687.47
2023-02-23T04:48:10.756Z,100693.50
2023-02-23T04:50:37.298Z,100689.94
2023-02-23T04:53:03.820Z,100693.44
2023-02-23T04:55:30.239Z,100690.44
2023-02-23T04:57:59.456Z,100690.47
2023-02-23T05:00:26.977Z,100691.75
2023-02-23T05:02:53.982Z,100689.56
2023-02-23T05:05:21.123Z,100695.09
2023-02-23T05:07:47.663Z,100694.44
2023-02-23T05:10:14.070Z,100693.06
2023-02-23T05:12:40.480Z,100699.09
2023-02-23T05:15:07.522Z,100687.47
2023-02-23T05:17:33.947Z,100687.78
2023-02-23T05:20:00.510Z,100687.72
2023-02-23T05:22:27.069Z,100674.59
2023-02-23T05:24:55.274Z,100678.06
2023-02-23T05:27:22.876Z,100675.38
2023-02-23T05:29:49.277Z,100677.47
2023-02-23T05:32:15.801Z,100682.38
2023-02-23T05:34:42.303Z,100687.28
2023-02-23T05:37:09.196Z,100699.66
2023-02-23T05:39:35.738Z,100694.25
2023-02-23T05:42:02.308Z,100707.81
2023-02-23T05:44:28.784Z,100698.59
2023-02-23T05:46:55.357Z,100703.25
2023-02-23T05:49:21.764Z,100706.97
2023-02-23T05:51:48.631Z,100702.31
2023-02-23T05:54:15.035Z,100704.50
2023-02-23T05:56:42.551Z,100713.69
2023-02-23T05:59:08.985Z,100716.38
2023-02-23T06:01:35.903Z,100706.97
2023-02-23T06:04:03.565Z,100711.06
2023-02-23T06:06:31.076Z,100708.06
2023-02-23T06:08:57.555Z,100714.00
2023-02-23T06:11:24.005Z,100713.19
2023-02-23T06:13:50.385Z,100720.22
2023-02-23T06:16:16.912Z,100709.78
2023-02-23T06:18:43.573Z,100713.81
2023-02-23T06:21:10.111Z,100721.69
2023-02-23T06:23:36.584Z,100724.75
2023-02-23T06:26:03.279Z,100714.63
2023-02-23T06:28:30.121Z,100717.06
2023-02-23T06:30:57.229Z,100721.41
2023-02-23T06:33:24.274Z,100727.69
2023-02-23T06:35:50.741Z,100726.16
2023-02-23T06:38:17.381Z,100733.75
2023-02-23T06:40:44.191Z,100727.69
2023-02-23T06:43:10.865Z,100730.91
2023-02-23T06:45:37.285Z,100730.34
2023-02-23T06:48:04.377Z,100730.59
2023-02-23T06:50:31.083Z,100728.41
2023-02-23T06:52:57.592Z,100737.38
2023-02-23T06:55:24.486Z,100741.28
2023-02-23T06:57:54.325Z,100735.25
2023-02-23T07:00:21.339Z,100738.16
2023-02-23T07:02:47.869Z,100743.22
2023-02-23T07:05:14.278Z,100748.91
2023-02-23T07:07:40.821Z,100751.44
2023-02-23T07:10:08.407Z,100749.22
2023-02-23T07:12:35.303Z,100752.19
2023-02-23T07:15:04.019Z,100755.38
2023-02-23T07:17:30.759Z,100754.03
2023-02-23T07:19:57.516Z,100754.63
2023-02-23T07:22:25.254Z,100761.84
2023-02-23T07:24:51.910Z,100765.66
2023-02-23T07:27:18.392Z,100762.16
2023-02-23T07:29:44.779Z,100767.56
2023-02-23T07:32:11.822Z,100769.34
2023-02-23T07:34:38.269Z,100774.13
2023-02-23T07:37:04.757Z,100777.63
2023-02-23T07:39:31.779Z,100778.09
2023-02-23T07:41:58.488Z,100779.22
2023-02-23T07:44:24.863Z,100782.44
2023-02-23T07:46:53.086Z,100782.81
2023-02-23T07:49:19.634Z,100785.66
2023-02-23T07:51:47.336Z,100777.69
2023-02-23T07:54:14.831Z,100779.84
2023-02-23T07:56:41.465Z,100784.25
2023-02-23T07:59:07.894Z,100783.31
2023-02-23T08:01:34.399Z,100794.63
2023-02-23T08:04:01.261Z,100786.59
2023-02-23T08:06:27.780Z,100791.81
2023-02-23T08:08:54.379Z,100792.00
2023-02-23T08:11:21.103Z,100783.75
2023-02-23T08:13:47.647Z,100787.25
2023-02-23T08:16:14.885Z,100790.22
2023-02-23T08:18:41.400Z,100776.63
2023-02-23T08:21:07.883Z,100790.84
2023-02-23T08:23:34.863Z,100785.31
2023-02-23T08:26:02.614Z,100795.13
2023-02-23T08:28:30.805Z,100793.19
2023-02-23T08:30:59.549Z,100802.28
2023-02-23T08:33:26.311Z,100788.00
2023-02-23T08:35:53.727Z,100790.72
2023-02-23T08:38:20.529Z,100793.78
2023-02-23T08:40:47.094Z,100800.09
2023-02-23T08:43:13.572Z,100800.72
2023-02-23T08:45:39.979Z,100798.34
2023-02-23T08:48:07.749Z,100797.97
2023-02-23T08:50:34.334Z,100805.88
2023-02-23T08:53:01.051Z,100810.47
2023-02-23T08:55:27.572Z,100813.16
2023-02-23T08:57:54.247Z,100811.06
2023-02-23T09:00:21.088Z,100818.56
2023-02-23T09:02:48.185Z,100818.38
2023-02-23T09:05:15.417Z,100820.78
2023-02-23T09:07:45.187Z,100823.75
2023-02-23T09:10:14.650Z,100815.63
2023-02-23T09:12:41.079Z,100825.50
2023-02-23T09:15:08.182Z,100821.56
2023-02-23T09:17:34.624Z,100834.00
2023-02-23T09:20:01.978Z,100830.50
2023-02-23T09:22:28.413Z,100833.75
2023-02-23T09:24:55.232Z,100828.22
2023-02-23T09:27:21.749Z,100834.72
2023-02-23T09:29:48.216Z,100834.00
2023-02-23T09:32:14.907Z,100830.31
2023-02-23T09:34:41.344Z,100835.47
2023-02-23T09:37:08.558Z,100840.94
2023-02-23T09:39:38.485Z,100844.56
2023-02-23T09:42:14.488Z,100838.53
2023-02-23T09:45:11.230Z,100839.78
2023-02-23T09:47:51.654Z,100840.09
2023-02-23T09:50:25.195Z,100842.75
2023-02-23T09:53:01.161Z,100846.56
2023-02-23T09:55:30.841Z,100845.34
2023-02-23T09:58:05.998Z,100847.97
2023-02-23T10:00:39.461Z,100853.66
2023-02-23T10:03:22.813Z,100853.19
2023-02-23T10:05:58.936Z,100855.25
2023-02-23T10:08:41.868Z,100854.22
2023-02-23T10:11:27.022Z,100858.28
2023-02-23T10:14:41.645Z,100859.44
2023-02-23T10:17:37.626Z,100861.25
2023-02-23T10:20:30.002Z,100863.56
2023-02-23T10:23:04.342Z,100864.38
2023-02-23T10:25:33.988Z,100868.72
2023-02-23T10:28:02.455Z,100859.56
2023-02-23T10:30:32.736Z,100869.34
2023-02-23T10:33:05.707Z,100865.53
2023-02-23T10:35:33.691Z,100876.66
2023-02-23T10:40:56.362Z,100878.44
2023-02-23T10:43:23.214Z,100868.66
2023-02-23T10:45:52.481Z,100871.47
2023-02-23T10:48:24.536Z,100877.88
2023-02-23T10:50:55.251Z,100869.22
2023-02-23T10:53:27.780Z,100864.44
2023-02-23T10:56:07.477Z,100863.13
2023-02-23T10:59:00.115Z,100868.53
2023-02-23T11:01:41.889Z,100870.13
2023-02-23T11:04:31.212Z,100860.59
2023-02-23T11:07:20.701Z,100858.41
2023-02-23T11:09:48.461Z,100862.25
2023-02-23T11:12:38.126Z,100865.25
2023-02-23T11:15:46.314Z,100856.53
2023-02-23T11:18:50.771Z,100858.75
2023-02-23T11:21:37.302Z,100858.47
2023-02-23T11:24:21.644Z,100856.59
2023-02-23T11:26:51.518Z,100853.94
2023-02-23T11:29:24.011Z,100855.50
2023-02-23T11:31:54.417Z,100858.41
2023-02-23T11:34:29.698Z,100862.00
2023-02-23T11:37:08.346Z,100855.97
2023-02-23T11:39:35.174Z,100854.19
2023-02-23T11:42:14.737Z,100848.47
2023-02-23T11:44:41.214Z,100851.38
2023-02-23T11:47:17.230Z,100851.97
2023-02-23T11:49:45.632Z,100849.28
2023-02-23T11:52:18.136Z,100845.75
2023-02-23T11:55:07.301Z,100850.28
2023-02-23T11:57:35.951Z,100837.50
2023-02-23T12:00:12.424Z,100840.44
2023-02-23T12:02:58.568Z,100841.22
2023-02-23T12:05:30.003Z,100839.41
2023-02-23T12:08:17.243Z,100834.38
2023-02-23T12:10:49.530Z,100831.97
2023-02-23T12:13:59.473Z,100830.44
2023-02-23T12:16:31.438Z,100828.75
2023-02-23T12:19:23.757Z,100827.41
2023-02-23T12:22:06.191Z,100823.16
2023-02-23T12:24:56.526Z,100819.06
2023-02-23T12:27:29.036Z,100822.31
2023-02-23T12:30:17.313Z,100830.31
2023-02-23T12:33:06.463Z,100819.69
2023-02-23T12:35:49.597Z,100830.03
2023-02-23T12:39:06.507Z,100823.72
2023-02-23T12:41:41.348Z,100828.16
2023-02-23T12:44:15.273Z,100837.28
2023-02-23T12:46:51.158Z,100831.56
2023-02-23T12:49:43.184Z,100825.03
2023-02-23T12:52:10.467Z,100829.69
2023-02-23T12:54:37.454Z,100828.31
2023-02-23T12:57:16.359Z,100830.38
2023-02-23T13:00:31.517Z,100817.06
2023-02-23T13:03:15.844Z,100821.25
2023-02-23T13:06:08.338Z,100833.97
2023-02-23T13:08:56.700Z,100828.88
2023-02-23T13:11:59.208Z,100825.81
2023-02-23T13:14:30.230Z,100831.63
2023-02-23T13:17:09.181Z,100821.03
2023-02-23T13:19:47.374Z,100820.78
2023-02-23T13:22:37.531Z,100826.31
2023-02-23T13:25:24.594Z,100817.84
2023-02-23T13:28:02.776Z,100820.25
2023-02-23T13:30:35.894Z,100814.38
2023-02-23T13:33:13.296Z,100815.84
2023-02-23T13:35:40.249Z,100818.69
2023-02-23T13:38:18.657Z,100817.53
2023-02-23T13:40:58.433Z,100815.13
2023-02-23T13:43:33.068Z,100814.72
2023-02-23T13:46:12.169Z,100812.56
2023-02-23T13:49:02.576Z,100815.97
2023-02-23T13:51:51.705Z,100820.69
2023-02-23T13:54:24.736Z,100818.38
2023-02-23T13:57:01.364Z,100822.91
2023-02-23T13:59:33.231Z,100822.00
2023-02-23T14:02:06.640Z,100820.69
2023-02-23T14:04:39.790Z,100818.50
2023-02-23T14:07:09.326Z,100823.16
2023-02-23T14:09:40.872Z,100827.97
2023-02-23T14:12:40.673Z,100827.41
2023-02-23T14:15:25.569Z,100819.91
2023-02-23T14:18:03.531Z,100820.41
2023-02-23T14:20:38.846Z,100833.28
2023-02-23T14:23:20.818Z,100823.56
2023-02-23T14:26:09.721Z,100828.50
2023-02-23T14:29:01.431Z,100826.81
2023-02-23T14:31:31.598Z,100824.09
2023-02-23T14:34:00.406Z,100822.25
2023-02-23T14:36:33.166Z,100827.72
2023-02-23T14:39:08.236Z,100823.22
2023-02-23T14:41:43.715Z,100827.41
2023-02-23T14:44:28.311Z,100828.03
2023-02-23T14:47:07.551Z,100826.25
2023-02-23T14:49:40.305Z,100834.31
2023-02-23T14:52:19.604Z,100824.38
2023-02-23T14:54:46.809Z,100830.91
2023-02-23T14:57:17.841Z,100832.25
2023-02-23T14:59:45.411Z,100828.28
2023-02-23T15:02:18.594Z,100841.81
2023-02-23T15:04:45.454Z,100828.84
2023-02-23T15:07:36.873Z,100833.63
2023-02-23T15:10:11.583Z,100834.13
2023-02-23T15:12:38.862Z,100831.97
2023-02-23T15:15:14.556Z,100838.22
2023-02-23T15:17:43.930Z,100843.69
2023-02-23T15:20:19.699Z,100842.81
2023-02-23T15:22:48.735Z,100842.69
2023-02-23T15:25:18.890Z,100839.97
2023-02-23T15:27:47.751Z,100830.06
2023-02-23T15:30:33.048Z,100839.16
2023-02-23T15:33:10.563Z,100838.44
2023-02-23T15:35:54.405Z,100841.81
2023-02-23T15:38:43.015Z,100837.94
2023-02-23T15:41:37.113Z,100838.25
2023-02-23T15:44:11.603Z,100840.53
2023-02-23T15:46:38.867Z,100843.94
2023-02-23T15:49:06.878Z,100845.63
2023-02-23T15:51:48.633Z,100842.38
2023-02-23T15:54:20.785Z,100848.22
2023-02-23T15:56:57.271Z,100848.75
2023-02-23T15:59:34.085Z,100844.00
2023-02-23T16:02:11.040Z,100842.22
2023-02-23T16:04:48.892Z,100845.66
2023-02-23T16:07:18.213Z,100840.34
2023-02-23T16:09:49.283Z,100838.38
2023-02-23T16:12:23.842Z,100833.03
2023-02-23T16:14:56.886Z,100834.22
2023-02-23T16:17:35.113Z,100834.44
2023-02-23T16:20:41.445Z,100839.63
2023-02-23T16:23:33.406Z,100837.75
2023-02-23T16:26:10.752Z,100835.59
2023-02-23T16:28:43.573Z,100842.03
2023-02-23T16:31:27.053Z,100832.81
2023-02-23T16:34:00.423Z,100835.28
2023-02-23T16:36:40.129Z,100837.19
2023-02-23T16:39:11.322Z,100834.41
2023-02-23T16:41:37.804Z,100838.31
2023-02-23T16:44:07.149Z,100841.50
2023-02-23T16:47:02.516Z,100841.44
2023-02-23T16:49:30.176Z,100839.66
2023-02-23T16:51:57.928Z,100841.66
2023-02-23T16:54:24.728Z,100846.09
2023-02-23T16:56:55.464Z,100847.25
2023-02-23T16:59:23.466Z,100859.63
2023-02-23T17:01:50.717Z,100845.31
2023-02-23T17:04:19.246Z,100860.69
2023-02-23T17:06:47.187Z,100859.06
2023-02-23T17:09:13.647Z,100862.44
2023-02-23T17:11:47.060Z,100869.03
2023-02-23T17:14:25.081Z,100868.16
2023-02-23T17:16:51.795Z,100863.97
2023-02-23T17:19:18.665Z,100864.03
2023-02-23T17:21:46.395Z,100862.44
2023-02-23T17:24:13.476Z,100863.56
2023-02-23T17:26:41.975Z,100864.66
2023-02-23T17:29:08.412Z,100864.19
2023-02-23T17:31:36.002Z,100869.81
2023-02-23T17:34:02.631Z,100868.97
2023-02-23T17:36:29.235Z,100861.75
2023-02-23T17:38:58.824Z,100866.19
2023-02-23T17:41:27.004Z,100865.28
2023-02-23T17:43:54.396Z,100861.75
2023-02-23T17:46:21.131Z,100865.84
2023-02-23T17:48:47.617Z,100862.81
2023-02-23T17:51:16.809Z,100867.16
2023-02-23T17:53:43.495Z,100871.50
2023-02-23T17:56:10.374Z,100875.75
2023-02-23T17:58:37.611Z,100870.53
2023-02-23T18:01:06.853Z,100873.31
2023-02-23T18:03:35.382Z,100874.19
2023-02-23T18:06:09.018Z,100879.69
2023-02-23T18:08:36.554Z,100886.81
2023-02-23T18:11:03.378Z,100880.16
2023-02-23T18:13:30.735Z,100881.00
2023-02-23T18:16:09.225Z,100879.28
2023-02-23T18:18:37.928Z,100881.81
2023-02-23T18:21:11.399Z,100873.06
2023-02-23T18:23:37.879Z,100877.13
2023-02-23T18:26:13.441Z,100879.28
2023-02-23T18:28:41.855Z,100877.63
2023-02-23T18:31:08.346Z,100881.88
2023-02-23T18:33:35.876Z,100876.00
2023-02-23T18:36:03.852Z,100882.94
2023-02-23T18:38:30.708Z,100889.53
2023-02-23T18:40:58.319Z,100884.03
2023-02-23T18:43:24.744Z,100872.56
2023-02-23T18:45:51.134Z,100879.84
2023-02-23T18:48:17.645Z,100897.53
2023-02-23T18:50:44.064Z,100906.63
2023-02-23T18:53:10.928Z,100907.22
2023-02-23T18:55:38.244Z,100906.78
2023-02-23T18:58:05.751Z,100913.50
2023-02-23T19:00:39.889Z,100927.59
2023-02-23T19:03:07.319Z,100910.78
2023-02-23T19:05:36.019Z,100915.97
2023-02-23T19:08:04.028Z,100922.88
2023-02-23T19:10:30.524Z,100915.16
2023-02-23T19:12:57.044Z,100917.50
2023-02-23T19:15:23.430Z,100908.50
2023-02-23T19:17:49.852Z,100912.56
2023-02-23T19:20:17.117Z,100904.72
2023-02-23T19:22:43.681Z,100910.09
2023-02-23T19:25:13.767Z,100909.28
2023-02-23T19:27:41.274Z,100907.19
2023-02-23T19:30:09.976Z,100907.91
2023-02-23T19:32:39.473Z,100905.69
2023-02-23T19:35:09.053Z,100907.06
2023-02-23T19:37:35.827Z,100913.28
2023-02-23T19:40:03.875Z,100911.19
2023-02-23T19:42:33.290Z,100914.09
2023-02-23T19:44:59.783Z,100914.00
2023-02-23T19:47:26.177Z,100906.38
2023-02-23T19:49:52.671Z,100907.75
2023-02-23T19:52:19.191Z,100911.88
2023-02-23T19:54:45.616Z,100926.72
2023-02-23T19:57:12.098Z,100922.28
2023-02-23T19:59:38.647Z,100926.72
2023-02-23T20:02:05.512Z,100928.25
2023-02-23T20:04:32.086Z,100926.47
2023-02-23T20:06:58.504Z,100929.16
2023-02-23T20:09:24.864Z,100934.56
2023-02-23T20:11:51.276Z,100926.59
2023-02-23T20:14:18.624Z,100931.72
2023-02-23T20:16:45.147Z,100943.69
2023-02-23T20:19:11.858Z,100936.88
2023-02-23T20:21:39.555Z,100932.91
2023-02-23T20:24:06.256Z,100931.72
2023-02-23T20:26:35.485Z,100936.88
2023-02-23T20:29:06.918Z,100940.38
2023-02-23T20:31:35.688Z,100937.22
2023-02-23T20:34:10.805Z,100933.94
2023-02-23T20:36:37.988Z,100926.56
2023-02-23T20:39:04.782Z,100927.66
2023-02-23T20:41:32.011Z,100930.19
2023-02-23T20:44:00.783Z,100931.84
2023-02-23T20:46:30.905Z,100931.91
2023-02-23T20:48:59.417Z,100929.34
2023-02-23T20:51:27.106Z,100927.25
2023-02-23T20:53:54.026Z,100928.19
2023-02-23T20:56:21.925Z,100948.31
2023-02-23T20:58:48.337Z,100937.56
2023-02-23T21:01:18.234Z,100939.78
2023-02-23T21:03:45.019Z,100936.94
2023-02-23T21:06:11.594Z,100938.13
2023-02-23T21:08:39.900Z,100940.22
2023-02-23T21:11:07.860Z,100939.31
2023-02-23T21:13:35.618Z,100934.25
2023-02-23T21:16:03.170Z,100936.03
2023-02-23T21:18:31.554Z,100941.06
2023-02-23T21:21:06.620Z,100939.41
2023-02-23T21:23:33.522Z,100940.59
2023-02-23T21:26:07.131Z,100937.63
2023-02-23T21:28:33.738Z,100938.50
2023-02-23T21:31:00.674Z,100929.34
2023-02-23T21:33:28.079Z,100934.03
2023-02-23T21:35:58.531Z,100931.13
2023-02-23T21:38:25.781Z,100922.69
2023-02-23T21:40:52.605Z,100928.28
2023-02-23T21:43:19.223Z,100920.09
2023-02-23T21:45:49.064Z,100920.97
2023-02-23T21:48:15.780Z,100931.97
2023-02-23T21:50:42.225Z,100931.31
2023-02-23T21:53:09.562Z,100927.34
2023-02-23T21:55:38.533Z,100919.56
2023-02-23T21:58:07.115Z,100920.34
2023-02-23T22:00:35.688Z,100909.56
2023-02-23T22:03:03.245Z,100915.16
2023-02-23T22:05:30.007Z,100917.75
2023-02-23T22:07:56.809Z,100916.63
2023-02-23T22:10:24.529Z,100908.16
2023-02-23T22:12:56.155Z,100914.47
2023-02-23T22:15:27.528Z,100901.00
2023-02-23T22:17:54.765Z,100901.72
2023-02-23T22:20:21.652Z,100898.22
2023-02-23T22:22:50.296Z,100891.88
2023-02-23T22:25:18.926Z,100890.25
2023-02-23T22:27:45.479Z,100895.97
2023-02-23T22:30:13.228Z,100894.31
2023-02-23T22:32:39.954Z,100901.06
2023-02-23T22:35:07.171Z,100886.44
2023-02-23T22:37:33.584Z,100891.97
2023-02-23T22:40:01.675Z,100898.78
2023-02-23T22:42:35.221Z,100891.72
2023-02-23T22:45:06.094Z,100890.44
2023-02-23T22:47:34.846Z,100879.69
2023-02-23T22:50:01.367Z,100876.88
2023-02-23T22:52:29.765Z,100887.63
2023-02-23T22:54:56.455Z,100882.59
2023-02-23T22:57:23.372Z,100881.63
2023-02-23T22:59:59.978Z,100880.66
2023-02-23T23:02:32.089Z,100873.09
2023-02-23T23:04:59.771Z,100876.56
2023-02-23T23:07:26.748Z,100867.81
2023-02-23T23:09:54.646Z,100878.44
2023-02-23T23:12:46.870Z,100857.50
2023-02-23T23:15:19.725Z,100870.72
2023-02-23T23:17:49.502Z,100863.72
2023-02-23T23:20:23.155Z,100863.72
2023-02-23T23:22:49.892Z,100860.50
2023-02-23T23:25:22.554Z,100856.53
2023-02-23T23:27:53.916Z,100860.06
2023-02-23T23:30:28.926Z,100849.50
2023-02-23T23:32:56.434Z,100852.91
2023-02-23T23:35:23.303Z,100836.19
2023-02-23T23:37:53.124Z,100836.50
2023-02-23T23:40:24.149Z,100837.59
2023-02-23T23:42:50.723Z,100831.00
2023-02-23T23:45:18.674Z,100835.94
2023-02-23T23:47:46.173Z,100832.75
2023-02-23T23:50:15.353Z,100822.66
2023-02-23T23:52:45.670Z,100823.25
2023-02-23T23:55:14.664Z,100819.53
2023-02-23T23:57:41.908Z,100816.03
